Time;durP1;ratioP1;P1;durP2;ratioP2;P2;SDS_P1;SDS_P2;PMS_P1;PMS_P2;Temp;Humidity;BMP_temperature;BMP_pressure;BME280_temperature;BME280_humidity;BME280_pressure;Samples;Min_cycle;Max_cycle;Signal;HPM_P1;HPM_P2
2020/12/04 00:01:32;;;;;;;30.40;14.80;;;;;;;-1.33;48.43;102560.66;4955940;28;20034;-91
2020/12/04 00:03:59;;;;;;;30.02;16.38;;;;;;;-0.79;48.35;102650.50;4971367;28;20489;-91
2020/12/04 00:06:26;;;;;;;36.55;18.27;;;;;;;-0.34;48.30;102725.72;4953623;28;20106;-92
2020/12/04 00:08:53;;;;;;;40.30;18.00;;;;;;;-0.32;48.68;102736.47;4956193;28;20176;-94
2020/12/04 00:11:20;;;;;;;34.53;18.73;;;;;;;-0.04;49.84;102829.47;4967048;28;20121;-94
2020/12/04 00:13:48;;;;;;;28.25;16.30;;;;;;;0.20;49.32;102806.59;4963958;28;20031;-94
2020/12/04 00:16:14;;;;;;;28.25;16.58;;;;;;;-1.44;49.59;102571.53;4961849;28;20117;-94
2020/12/04 00:18:41;;;;;;;30.23;15.82;;;;;;;-0.06;48.19;102771.53;4959101;28;20027;-93
2020/12/04 00:21:08;;;;;;;32.00;17.23;;;;;;;-0.23;47.30;102737.56;4960967;28;20033;-92
2020/12/04 00:23:35;;;;;;;24.98;14.70;;;;;;;-0.51;47.29;102708.09;4959862;28;20041;-92
2020/12/04 00:26:02;;;;;;;34.38;17.73;;;;;;;-0.02;47.50;102817.47;4960735;28;20117;-93
2020/12/04 00:28:29;;;;;;;30.05;15.63;;;;;;;-0.70;47.64;102725.91;4960859;28;20038;-93
2020/12/04 00:30:56;;;;;;;23.17;14.45;;;;;;;-0.18;46.89;102787.91;4961088;28;20499;-93
2020/12/04 00:33:23;;;;;;;29.52;14.63;;;;;;;0.26;47.04;102833.31;4961573;28;20050;-93
2020/12/04 00:35:49;;;;;;;30.67;13.52;;;;;;;-0.26;46.70;102744.13;4961900;28;20038;-92
2020/12/04 00:38:16;;;;;;;31.52;16.13;;;;;;;0.30;46.27;102806.69;4976832;28;20488;-93
2020/12/04 00:40:43;;;;;;;36.17;15.25;;;;;;;0.71;46.38;102845.00;4961304;28;20038;-91
2020/12/04 00:43:10;;;;;;;27.65;13.70;;;;;;;-0.14;45.73;102679.59;4961583;28;20031;-90
2020/12/04 00:45:37;;;;;;;22.27;14.18;;;;;;;0.86;45.08;102838.22;4966061;28;20038;-92
2020/12/04 00:48:03;;;;;;;23.17;15.10;;;;;;;-0.50;45.77;102654.50;4973658;28;20033;-90
2020/12/04 00:50:30;;;;;;;26.20;13.63;;;;;;;0.22;44.98;102759.16;4969964;28;20093;-92
2020/12/04 00:52:57;;;;;;;22.27;11.57;;;;;;;-0.04;44.49;102742.31;4960906;28;20481;-93
2020/12/04 00:55:24;;;;;;;23.08;11.43;;;;;;;0.43;44.68;102828.28;4959893;28;20022;-93
2020/12/04 00:57:51;;;;;;;18.42;10.48;;;;;;;-0.64;44.75;102644.78;4960631;28;20473;-92
2020/12/04 01:00:17;;;;;;;17.20;8.77;;;;;;;0.08;44.13;102801.22;4959875;28;20062;-93
2020/12/04 01:02:44;;;;;;;16.25;8.45;;;;;;;0.21;43.73;102751.09;4960673;28;20027;-92
2020/12/04 01:05:11;;;;;;;27.40;8.70;;;;;;;-0.83;43.40;102600.94;4976196;28;20089;-94
2020/12/04 01:07:38;;;;;;;25.30;9.35;;;;;;;-0.20;42.67;102685.56;4965530;28;20928;-83
2020/12/04 01:10:07;;;;;;;16.73;7.88;;;;;;;0.36;42.67;102754.38;4992771;28;20030;-84
2020/12/04 01:12:34;;;;;;;17.95;7.75;;;;;;;0.38;42.44;102736.91;4992745;28;20110;-82
2020/12/04 01:15:01;;;;;;;19.13;8.20;;;;;;;0.88;42.25;102841.69;4993794;28;20022;-81
2020/12/04 01:17:28;;;;;;;15.70;8.65;;;;;;;0.26;41.58;102691.66;4993737;28;20030;-80
2020/12/04 01:19:55;;;;;;;21.63;9.27;;;;;;;0.54;40.95;102746.47;4992422;28;20113;-87
2020/12/04 01:22:22;;;;;;;15.32;8.55;;;;;;;-0.13;41.43;102694.94;4993811;28;20026;-87
2020/12/04 01:24:48;;;;;;;13.95;8.15;;;;;;;-0.10;41.08;102620.28;4975047;28;20045;-87
2020/12/04 01:27:16;;;;;;;19.10;8.90;;;;;;;-0.20;41.10;102631.09;4975984;28;20076;-87
2020/12/04 01:29:42;;;;;;;13.15;7.78;;;;;;;0.72;41.20;102835.84;4975918;28;20507;-86
2020/12/04 01:32:09;;;;;;;19.98;8.13;;;;;;;-0.74;41.59;102603.88;4992781;28;20030;-83
2020/12/04 01:34:36;;;;;;;19.88;8.57;;;;;;;-1.36;41.33;102552.78;4996800;28;20829;-84
2020/12/04 01:37:03;;;;;;;15.60;8.38;;;;;;;-0.20;41.79;102749.06;4982061;28;20073;-83
2020/12/04 01:39:30;;;;;;;14.98;7.47;;;;;;;-0.34;40.66;102670.41;4996891;28;20034;-84
2020/12/04 01:41:56;;;;;;;20.23;10.38;;;;;;;0.33;40.96;102749.19;4999846;28;20022;-84
2020/12/04 01:44:23;;;;;;;19.52;9.10;;;;;;;-0.29;40.20;102652.69;5000905;28;20019;-84
2020/12/04 01:46:50;;;;;;;18.23;8.02;;;;;;;0.08;40.44;102738.56;5004530;28;20109;-84
2020/12/04 01:49:18;;;;;;;17.95;8.02;;;;;;;0.62;40.24;102794.88;5005364;28;20022;-83
2020/12/04 01:51:47;;;;;;;22.20;10.30;;;;;;;-0.38;40.42;102639.00;4987861;28;20038;-81
2020/12/04 01:54:15;;;;;;;13.25;9.13;;;;;;;-0.13;40.04;102623.28;5002197;28;20014;-84
2020/12/04 01:56:42;;;;;;;21.48;9.60;;;;;;;1.08;39.17;102798.16;4975987;28;20034;-84
2020/12/04 01:59:09;;;;;;;19.00;9.32;;;;;;;0.81;38.97;102750.47;4975387;28;20049;-82
2020/12/04 02:01:38;;;;;;;16.92;9.95;;;;;;;0.93;39.01;102735.78;4992858;28;20121;-83
2020/12/04 02:04:12;;;;;;;20.90;8.97;;;;;;;0.86;38.82;102676.44;4975238;28;20031;-83
2020/12/04 02:06:47;;;;;;;12.98;8.63;;;;;;;1.26;39.25;102800.22;4991774;28;20372;-88
2020/12/04 02:09:28;;;;;;;17.38;9.77;;;;;;;0.10;39.10;102682.06;4973703;28;20117;-88
2020/12/04 02:11:59;;;;;;;24.10;10.40;;;;;;;-0.42;39.56;102567.63;4974651;28;20030;-84
2020/12/04 02:14:29;;;;;;;26.13;9.25;;;;;;;-0.36;38.73;102547.19;4975357;28;20053;-87
2020/12/04 02:17:04;;;;;;;14.70;8.75;;;;;;;0.39;39.86;102673.22;4974531;28;20105;-87
2020/12/04 02:19:41;;;;;;;19.45;9.32;;;;;;;1.34;40.13;102782.19;4979388;28;20034;-86
2020/12/04 02:22:10;;;;;;;21.02;8.80;;;;;;;0.46;39.69;102642.72;4973339;28;20030;-83
2020/12/04 02:24:38;;;;;;;17.33;9.02;;;;;;;0.36;39.54;102593.63;4956827;28;20031;-88
2020/12/04 02:27:06;;;;;;;18.45;9.13;;;;;;;-0.01;40.55;102620.38;4970696;28;20162;-85
2020/12/04 02:29:33;;;;;;;23.10;9.18;;;;;;;1.02;40.97;102739.53;4973394;28;20539;-82
2020/12/04 02:32:00;;;;;;;17.23;10.93;;;;;;;-1.22;41.47;102368.66;4962040;28;20041;-84
2020/12/04 02:34:27;;;;;;;18.40;9.38;;;;;;;1.38;41.23;102766.38;4990966;28;20041;-82
2020/12/04 02:36:56;;;;;;;13.77;8.75;;;;;;;0.28;41.42;102664.28;4964798;28;20030;-85
2020/12/04 02:39:23;;;;;;;14.60;8.60;;;;;;;-0.10;40.86;102574.88;4972807;28;20118;-87
2020/12/04 02:41:50;;;;;;;13.60;8.05;;;;;;;0.56;40.44;102635.44;4971749;28;20397;-82
2020/12/04 02:44:17;;;;;;;14.65;8.88;;;;;;;0.83;41.41;102718.47;4955669;28;20030;-86
2020/12/04 02:46:47;;;;;;;21.77;9.60;;;;;;;-0.42;41.89;102527.69;4972789;28;20051;-86
2020/12/04 02:49:13;;;;;;;;;;;;;;;1.13;41.62;102745.91;4955729;28;20146;-86
2020/12/04 02:51:44;;;;;;;19.52;7.82;;;;;;;0.49;41.95;102688.75;4955388;28;20580;-85
2020/12/04 02:54:11;;;;;;;17.88;9.02;;;;;;;1.24;41.16;102734.88;4971291;28;20145;-83
2020/12/04 02:56:38;;;;;;;15.07;9.25;;;;;;;0.77;41.54;102691.78;4963414;28;21556;-85
2020/12/04 02:59:05;;;;;;;14.40;8.02;;;;;;;1.22;40.71;102720.50;4954650;28;20026;-86
2020/12/04 03:01:32;;;;;;;16.50;7.82;;;;;;;0.74;41.20;102651.13;4955026;28;20129;-85
2020/12/04 03:03:58;;;;;;;14.82;7.88;;;;;;;0.78;40.96;102644.41;4972629;28;20023;-86
2020/12/04 03:06:25;;;;;;;15.02;9.48;;;;;;;0.85;40.38;102593.78;4972741;28;20018;-82
2020/12/04 03:08:52;;;;;;;20.58;7.95;;;;;;;1.56;40.66;102719.28;4971814;28;20050;-85
2020/12/04 03:11:26;;;;;;;15.73;8.73;;;;;;;1.16;41.48;102697.38;4991730;28;20030;-84
2020/12/04 03:13:53;;;;;;;21.65;8.63;;;;;;;0.93;40.80;102628.53;4975585;28;20027;-85
2020/12/04 03:16:20;;;;;;;22.33;8.70;;;;;;;0.66;40.58;102568.16;4983916;28;20542;-84
2020/12/04 03:18:47;;;;;;;15.82;8.57;;;;;;;1.62;40.88;102710.53;4972867;28;20514;-83
2020/12/04 03:21:13;;;;;;;17.60;8.38;;;;;;;1.70;40.64;102649.72;4974057;28;20126;-82
2020/12/04 03:23:40;;;;;;;15.90;8.05;;;;;;;0.99;39.77;102509.78;4991396;28;20034;-86
2020/12/04 03:26:07;;;;;;;13.23;8.82;;;;;;;1.18;39.24;102526.19;4991632;28;20030;-83
2020/12/04 03:28:34;;;;;;;17.83;11.00;;;;;;;0.32;39.92;102486.75;4989018;28;20032;-82
2020/12/04 03:31:01;;;;;;;14.65;8.80;;;;;;;0.00;39.80;102400.66;4991267;28;20034;-83
2020/12/04 03:33:28;;;;;;;20.17;8.70;;;;;;;0.86;39.80;102500.06;4973447;28;20041;-81
2020/12/04 03:35:54;;;;;;;16.40;8.68;;;;;;;1.58;39.76;102594.41;4991155;28;20038;-84
2020/12/04 03:38:25;;;;;;;14.88;9.77;;;;;;;0.74;39.24;102501.16;4973977;28;20038;-86
2020/12/04 03:40:51;;;;;;;16.50;9.43;;;;;;;1.80;38.63;102616.94;4991535;28;20034;-78
2020/12/04 03:43:18;;;;;;;16.33;8.85;;;;;;;0.38;39.14;102395.41;4991041;28;20034;-84
2020/12/04 03:45:45;;;;;;;11.90;8.23;;;;;;;0.42;38.30;102423.22;4991974;28;20511;-80
2020/12/04 03:48:12;;;;;;;16.75;8.73;;;;;;;1.70;39.08;102661.53;4990140;28;20034;-84
2020/12/04 03:50:39;;;;;;;14.13;8.57;;;;;;;1.14;38.80;102521.16;4974056;28;20056;-79
2020/12/04 03:53:07;;;;;;;12.02;7.60;;;;;;;1.71;38.44;102575.84;4991155;28;20030;-82
2020/12/04 03:55:36;;;;;;;16.75;11.25;;;;;;;0.76;39.51;102478.22;4973304;28;20378;-85
2020/12/04 03:58:02;;;;;;;17.45;7.15;;;;;;;1.25;40.15;102533.81;4972385;28;20038;-84
2020/12/04 04:00:29;;;;;;;12.70;7.63;;;;;;;0.78;40.53;102491.72;4990125;28;20463;-82
2020/12/04 04:02:56;;;;;;;15.20;8.60;;;;;;;0.90;39.32;102405.16;4989684;28;20055;-82
2020/12/04 04:05:23;;;;;;;28.08;8.55;;;;;;;2.51;38.56;102656.66;4973164;28;20034;-84
2020/12/04 04:07:53;;;;;;;11.10;7.93;;;;;;;2.33;38.24;102564.47;4962319;28;20572;-80
2020/12/04 04:10:19;;;;;;;12.18;7.28;;;;;;;1.43;39.04;102480.19;4953314;28;20027;-84
2020/12/04 04:12:46;;;;;;;13.75;6.95;;;;;;;1.96;39.18;102614.47;4953808;28;20044;-82
2020/12/04 04:15:13;;;;;;;16.05;6.30;;;;;;;1.88;39.24;102623.44;4971932;28;20070;-85
2020/12/04 04:17:40;;;;;;;14.15;7.75;;;;;;;1.57;39.30;102529.88;4972978;28;20085;-83
2020/12/04 04:20:06;;;;;;;13.70;7.40;;;;;;;1.53;38.74;102492.97;4954399;28;20031;-81
2020/12/04 04:22:33;;;;;;;15.02;7.38;;;;;;;2.00;38.49;102520.31;4971057;28;20082;-84
2020/12/04 04:25:00;;;;;;;10.27;7.43;;;;;;;0.95;38.05;102413.78;4971112;28;20392;-82
2020/12/04 04:27:27;;;;;;;11.82;6.47;;;;;;;2.37;37.79;102602.44;4952028;28;20026;-81
2020/12/04 04:29:54;;;;;;;10.00;5.70;;;;;;;1.26;37.64;102432.69;4969790;28;20113;-82
2020/12/04 04:32:21;;;;;;;13.90;6.68;;;;;;;1.50;37.51;102502.31;4971141;28;20035;-81
2020/12/04 04:34:47;;;;;;;11.02;5.93;;;;;;;0.84;37.36;102370.28;4971647;28;20037;-83
2020/12/04 04:37:14;;;;;;;10.77;6.45;;;;;;;0.73;37.50;102354.94;4953440;28;20113;-83
2020/12/04 04:39:43;;;;;;;12.40;4.93;;;;;;;1.08;35.79;102462.59;4952803;28;20038;-83
2020/12/04 04:42:13;;;;;;;9.13;5.28;;;;;;;1.03;35.70;102413.03;4970340;28;20015;-84
2020/12/04 04:44:39;;;;;;;12.02;6.10;;;;;;;1.94;35.43;102528.22;4954237;28;20045;-84
2020/12/04 04:47:12;;;;;;;15.63;6.07;;;;;;;2.18;35.49;102588.69;4971326;28;20027;-82
2020/12/04 04:49:45;;;;;;;9.00;5.03;;;;;;;1.30;35.77;102453.22;4971581;28;20031;-82
2020/12/04 04:52:13;;;;;;;9.75;4.30;;;;;;;2.11;35.45;102581.22;4971586;28;20030;-81
2020/12/04 04:54:48;;;;;;;8.68;4.78;;;;;;;1.69;35.97;102517.81;4972933;28;20074;-82
2020/12/04 04:57:20;;;;;;;10.07;6.57;;;;;;;1.48;35.42;102501.59;4975305;28;20033;-83
2020/12/04 04:59:46;;;;;;;12.65;5.47;;;;;;;0.84;35.46;102352.06;4975342;28;20464;-86
2020/12/04 05:02:14;;;;;;;11.40;5.30;;;;;;;2.32;35.97;102568.22;4975808;28;20027;-85
2020/12/04 05:04:57;;;;;;;10.73;5.03;;;;;;;2.24;35.71;102576.31;4957982;28;20504;-84
2020/12/04 05:07:32;;;;;;;10.60;6.47;;;;;;;1.63;35.87;102491.06;4975318;28;20073;-86
2020/12/04 05:10:16;;;;;;;15.63;6.80;;;;;;;1.58;35.67;102468.81;4975381;28;20023;-84
2020/12/04 05:12:45;;;;;;;9.63;4.93;;;;;;;2.54;33.89;102566.09;4973988;28;20057;-84
2020/12/04 05:15:21;;;;;;;7.00;4.95;;;;;;;2.51;34.85;102565.53;4975198;28;20042;-85
2020/12/04 05:18:12;;;;;;;10.95;4.80;;;;;;;1.69;34.09;102427.69;4975406;28;20030;-84
2020/12/04 05:20:50;;;;;;;9.15;4.47;;;;;;;2.17;34.67;102515.94;4957971;28;20030;-85
2020/12/04 05:23:18;;;;;;;6.70;4.20;;;;;;;2.18;33.03;102490.31;4957488;28;20030;-82
2020/12/04 05:25:51;;;;;;;9.63;4.70;;;;;;;2.55;33.46;102543.22;4957483;28;20484;-81
2020/12/04 05:28:23;;;;;;;8.27;4.10;;;;;;;2.32;33.14;102501.75;4974575;28;20041;-82
2020/12/04 05:31:10;;;;;;;5.55;3.63;;;;;;;2.77;33.13;102579.38;4957584;28;20034;-81
2020/12/04 05:33:44;;;;;;;5.40;3.55;;;;;;;2.78;32.53;102596.66;4974918;28;20089;-80
2020/12/04 05:36:22;;;;;;;7.63;4.38;;;;;;;2.64;32.74;102592.53;4974723;28;20030;-84
2020/12/04 05:38:52;;;;;;;4.68;2.95;;;;;;;1.92;32.42;102451.88;4957059;28;20038;-82
2020/12/04 05:41:20;;;;;;;7.53;3.22;;;;;;;2.65;32.88;102591.50;4956900;28;20113;-86
2020/12/04 05:43:46;;;;;;;6.57;3.13;;;;;;;1.80;33.04;102469.47;4957001;28;20034;-82
2020/12/04 05:46:21;;;;;;;6.10;3.28;;;;;;;2.60;32.72;102560.03;4974431;28;20057;-80
2020/12/04 05:49:07;;;;;;;5.07;4.13;;;;;;;2.81;32.41;102515.16;4956938;28;20036;-81
2020/12/04 05:51:37;;;;;;;5.25;3.30;;;;;;;3.22;32.50;102565.81;4974198;28;20635;-82
2020/12/04 05:54:05;;;;;;;8.50;3.58;;;;;;;2.65;32.82;102543.16;4973865;28;20504;-82
2020/12/04 05:56:34;;;;;;;4.28;2.83;;;;;;;2.33;33.57;102487.91;4974044;28;20049;-81
2020/12/04 05:59:13;;;;;;;8.38;3.25;;;;;;;2.99;33.19;102596.38;4956724;28;20034;-82
2020/12/04 06:01:46;;;;;;;4.50;2.80;;;;;;;1.07;32.48;102308.09;4973794;28;20429;-81
2020/12/04 06:04:20;;;;;;;5.30;2.42;;;;;;;1.70;32.54;102437.59;4956440;28;20392;-82
2020/12/04 06:06:49;;;;;;;8.35;3.75;;;;;;;2.59;32.85;102574.72;4972588;28;20031;-82
2020/12/04 06:09:17;;;;;;;7.63;3.58;;;;;;;2.74;32.81;102555.06;4956229;28;20164;-83
2020/12/04 06:11:48;;;;;;;5.32;3.67;;;;;;;1.74;34.67;102455.38;4956370;28;20643;-83
2020/12/04 06:14:20;;;;;;;5.50;2.78;;;;;;;1.44;34.61;102410.97;4973624;28;20030;-85
2020/12/04 06:17:02;;;;;;;4.05;3.33;;;;;;;2.73;35.67;102591.63;4973591;28;20026;-82
2020/12/04 06:19:36;;;;;;;7.28;3.20;;;;;;;2.75;36.10;102597.81;4973972;28;20511;-82
2020/12/04 06:22:17;;;;;;;7.65;3.70;;;;;;;1.83;36.25;102448.19;4956168;28;20414;-81
2020/12/04 06:24:56;;;;;;;9.13;4.93;;;;;;;2.84;36.54;102598.75;4973364;28;20512;-81
2020/12/04 06:27:45;;;;;;;7.05;4.47;;;;;;;2.83;36.54;102603.38;4956365;28;20027;-81
2020/12/04 06:30:19;;;;;;;7.82;4.68;;;;;;;2.35;38.22;102545.19;4972258;28;20057;-80
2020/12/04 06:32:49;;;;;;;5.78;3.53;;;;;;;2.65;38.17;102594.25;4978315;28;20113;-83
2020/12/04 06:35:43;;;;;;;6.93;5.10;;;;;;;2.48;38.68;102593.19;4979372;28;20504;-85
2020/12/04 06:38:38;;;;;;;7.20;4.93;;;;;;;2.62;38.94;102589.09;4960957;28;20165;-82
2020/12/04 06:41:35;;;;;;;8.45;5.32;;;;;;;1.90;40.04;102514.03;4949110;28;20043;-94
2020/12/04 06:44:18;;;;;;;11.77;7.32;;;;;;;1.69;40.09;102512.34;4959332;28;20027;-91
2020/12/04 06:46:47;;;;;;;11.15;5.40;;;;;;;1.43;40.43;102439.25;4972237;28;20085;-91
2020/12/04 06:49:45;;;;;;;8.95;6.03;;;;;;;1.72;40.65;102468.34;4967667;28;20085;-89
2020/12/04 06:52:19;;;;;;;9.68;7.40;;;;;;;1.88;40.85;102521.47;4973490;28;20023;-88
2020/12/04 06:54:49;;;;;;;12.13;6.05;;;;;;;2.14;41.55;102573.59;4980477;28;20033;-87
2020/12/04 06:57:20;;;;;;;9.85;5.18;;;;;;;2.22;42.19;102561.94;4979145;28;20023;-86
2020/12/04 06:59:48;;;;;;;13.05;6.60;;;;;;;2.36;42.58;102612.50;4980459;28;20034;-89
2020/12/04 07:02:15;;;;;;;14.05;6.32;;;;;;;2.29;43.15;102636.00;4959818;28;20126;-86
2020/12/04 07:05:00;;;;;;;17.30;7.35;;;;;;;2.21;43.36;102617.63;4980427;28;20034;-89
2020/12/04 07:07:28;;;;;;;11.65;7.43;;;;;;;1.05;43.20;102411.03;4981745;28;20070;-87
2020/12/04 07:09:57;;;;;;;13.90;7.97;;;;;;;2.25;43.39;102602.63;4960801;28;20586;-89
2020/12/04 07:12:26;;;;;;;13.48;7.20;;;;;;;0.37;44.08;102315.50;4955091;28;20031;-90
2020/12/04 07:14:55;;;;;;;12.98;7.43;;;;;;;1.31;44.11;102427.63;4954264;28;20023;-85
2020/12/04 07:17:27;;;;;;;11.73;7.25;;;;;;;1.81;44.11;102521.22;4960689;28;20035;-89
2020/12/04 07:19:55;;;;;;;18.00;7.60;;;;;;;0.82;44.57;102365.84;4961172;28;20085;-88
2020/12/04 07:22:24;;;;;;;15.77;7.43;;;;;;;1.75;45.02;102524.53;4977900;28;20031;-88
2020/12/04 07:24:58;;;;;;;20.17;9.07;;;;;;;1.94;44.68;102542.75;4975967;28;20015;-89
2020/12/04 07:27:30;;;;;;;16.00;7.15;;;;;;;1.15;45.18;102430.13;4952128;28;20064;-86
2020/12/04 07:29:57;;;;;;;20.65;8.38;;;;;;;1.92;45.36;102572.09;4959561;28;20034;-92
2020/12/04 07:32:26;;;;;;;14.68;7.85;;;;;;;1.76;45.32;102518.94;4977307;28;20791;-91
2020/12/04 07:34:59;;;;;;;17.75;6.80;;;;;;;1.23;45.62;102469.31;4985955;28;20046;-92
2020/12/04 07:37:29;;;;;;;18.42;7.25;;;;;;;2.37;44.99;102622.44;4989075;28;20093;-94
2020/12/04 07:39:56;;;;;;;11.90;5.57;;;;;;;0.57;44.88;102325.53;4963577;28;20058;-85
2020/12/04 07:42:24;;;;;;;15.27;8.73;;;;;;;1.09;46.11;102467.88;4968713;28;20022;-95
2020/12/04 07:44:57;;;;;;;17.77;9.93;;;;;;;1.48;45.33;102509.78;4968000;28;20054;-94
2020/12/04 07:47:25;;;;;;;17.30;8.20;;;;;;;-0.28;45.44;102204.41;4965227;28;20031;-94
2020/12/04 07:49:57;;;;;;;15.88;8.95;;;;;;;1.67;46.13;102559.91;4981490;28;20054;-95
2020/12/04 07:52:29;;;;;;;19.17;8.45;;;;;;;0.28;45.89;102321.81;4975064;28;20030;-95
2020/12/04 07:55:09;;;;;;;21.25;8.27;;;;;;;1.16;46.33;102479.09;4977189;28;20097;-94
2020/12/04 07:58:00;;;;;;;12.98;7.75;;;;;;;2.04;46.13;102608.28;4984311;28;20704;-93
2020/12/04 08:00:47;;;;;;;20.25;9.20;;;;;;;1.16;46.65;102456.38;4969813;28;20070;-95
2020/12/04 08:03:18;;;;;;;19.10;11.05;;;;;;;1.68;46.58;102542.50;4983223;28;20047;-95
2020/12/04 08:05:46;;;;;;;17.33;10.20;;;;;;;0.79;46.60;102436.19;4972014;28;20027;-92
2020/12/04 08:13:25;;;;;;;24.58;10.10;;;;;;;1.47;47.11;102538.97;5022571;23;20069;-88
2020/12/04 08:15:56;;;;;;;19.73;9.90;;;;;;;1.89;47.23;102613.34;4966405;28;20365;-96
2020/12/04 08:18:23;;;;;;;21.15;10.32;;;;;;;1.66;46.96;102561.75;4962896;28;21600;-94
2020/12/04 08:20:50;;;;;;;21.48;9.32;;;;;;;1.90;47.36;102623.28;4961752;28;20042;-92
2020/12/04 08:23:23;;;;;;;23.25;8.80;;;;;;;1.50;47.04;102538.66;4960114;28;20117;-95
2020/12/04 08:25:50;;;;;;;18.38;9.45;;;;;;;1.45;46.44;102496.44;4984488;28;20128;-91
2020/12/04 08:28:16;;;;;;;22.60;9.15;;;;;;;0.31;46.99;102310.66;4968661;28;20026;-94
2020/12/04 08:30:43;;;;;;;17.48;10.20;;;;;;;0.22;46.88;102311.47;4976149;28;20058;-94
2020/12/04 08:33:10;;;;;;;16.13;8.82;;;;;;;1.94;47.61;102643.81;4969141;28;20477;-94
2020/12/04 08:35:39;;;;;;;22.73;10.00;;;;;;;-0.76;47.37;102178.84;4975612;28;20065;-95
2020/12/04 08:38:08;;;;;;;17.23;8.38;;;;;;;0.90;47.18;102462.44;4969917;28;20098;-89
2020/12/04 08:40:37;;;;;;;16.73;9.55;;;;;;;1.69;47.02;102587.94;4983874;28;20544;-89
2020/12/04 08:43:19;;;;;;;17.67;10.07;;;;;;;1.91;47.50;102635.94;4967815;28;20035;-92
2020/12/04 08:45:48;;;;;;;15.38;8.93;;;;;;;1.69;48.21;102588.81;4969476;28;20061;-93
2020/12/04 08:48:22;;;;;;;24.48;10.43;;;;;;;2.01;47.28;102636.78;4966965;28;20031;-90
2020/12/04 08:50:51;;;;;;;16.27;9.93;;;;;;;1.96;47.49;102625.41;4985437;28;20037;-96
2020/12/04 08:53:20;;;;;;;30.63;9.55;;;;;;;0.58;47.54;102396.28;4975120;28;20027;-95
2020/12/04 08:55:57;;;;;;;19.67;10.20;;;;;;;2.04;46.58;102606.41;4975026;28;20057;-92
2020/12/04 08:58:26;;;;;;;14.48;8.50;;;;;;;1.49;46.80;102517.81;4979999;28;20035;-90
2020/12/04 09:00:58;;;;;;;24.60;9.80;;;;;;;0.52;47.04;102372.31;5001939;28;20141;-96
2020/12/04 09:03:26;;;;;;;20.83;8.80;;;;;;;1.85;46.91;102571.78;4969151;28;20086;-92
2020/12/04 09:05:55;;;;;;;15.98;9.40;;;;;;;1.27;46.23;102474.47;4973500;28;20476;-86
2020/12/04 09:08:22;;;;;;;19.77;9.68;;;;;;;1.68;46.05;102537.94;4978544;28;20054;-89
2020/12/04 09:10:49;;;;;;;17.08;10.18;;;;;;;1.49;45.52;102547.00;4967101;28;20506;-85
2020/12/04 09:13:16;;;;;;;13.52;9.27;;;;;;;1.84;45.70;102574.69;4982209;28;20049;-84
2020/12/04 09:15:43;;;;;;;20.98;10.95;;;;;;;1.44;45.33;102531.06;4982372;28;20085;-85
2020/12/04 09:18:11;;;;;;;17.23;9.63;;;;;;;1.33;45.54;102512.09;4981671;28;20018;-89
2020/12/04 09:20:38;;;;;;;22.52;9.48;;;;;;;1.16;44.75;102478.22;4959678;28;20031;-90
2020/12/04 09:23:05;;;;;;;20.05;10.57;;;;;;;1.61;45.32;102566.81;4963512;28;20520;-94
2020/12/04 09:25:32;;;;;;;24.42;11.23;;;;;;;2.05;45.02;102632.75;4995571;28;20029;-92
2020/12/04 09:27:59;;;;;;;18.48;9.30;;;;;;;1.04;44.81;102480.22;4961549;28;20050;-92
2020/12/04 09:30:26;;;;;;;18.35;9.65;;;;;;;2.03;44.50;102650.28;4964594;28;20053;-91
2020/12/04 09:32:53;;;;;;;17.88;10.75;;;;;;;1.11;44.46;102492.28;4962632;28;20555;-93
2020/12/04 09:35:20;;;;;;;20.33;10.68;;;;;;;1.53;44.60;102572.16;4962399;28;20074;-95
2020/12/04 09:37:48;;;;;;;18.55;9.40;;;;;;;1.60;44.54;102562.38;4958834;28;20043;-87
2020/12/04 09:40:19;;;;;;;21.35;10.52;;;;;;;0.12;44.48;102342.31;4959480;28;20085;-87
2020/12/04 09:42:47;;;;;;;22.00;10.05;;;;;;;1.48;45.02;102558.91;4961983;28;20030;-90
2020/12/04 09:45:15;;;;;;;18.75;10.82;;;;;;;1.94;44.68;102612.91;4959421;28;20114;-92
2020/12/04 09:47:42;;;;;;;23.95;10.95;;;;;;;1.92;44.70;102652.16;4965586;28;20035;-91
2020/12/04 09:50:12;;;;;;;16.27;10.57;;;;;;;1.99;44.71;102654.31;4963800;28;20034;-90
2020/12/04 09:52:40;;;;;;;14.00;8.23;;;;;;;1.54;44.54;102576.59;4959626;28;20133;-87
2020/12/04 09:55:10;;;;;;;21.60;11.07;;;;;;;0.59;45.14;102406.16;4960993;28;20031;-90
2020/12/04 09:57:40;;;;;;;35.10;13.52;;;;;;;1.95;45.43;102645.53;4981415;28;20031;-88
2020/12/04 10:00:07;;;;;;;18.27;11.90;;;;;;;1.62;45.26;102560.34;4963384;28;20517;-87
2020/12/04 10:02:34;;;;;;;21.70;10.98;;;;;;;1.92;45.18;102605.72;4962747;28;20497;-90
2020/12/04 10:05:02;;;;;;;22.88;13.07;;;;;;;1.15;45.18;102482.84;4968638;28;20038;-90
2020/12/04 10:07:29;;;;;;;20.25;10.80;;;;;;;1.80;45.15;102601.44;4964108;28;20548;-86
2020/12/04 10:09:56;;;;;;;23.75;11.30;;;;;;;2.03;45.79;102672.16;4978414;28;20034;-92
2020/12/04 10:12:24;;;;;;;22.90;11.65;;;;;;;0.86;45.02;102478.22;5594234;23;20103;-92
2020/12/04 10:14:51;;;;;;;22.50;10.20;;;;;;;2.02;45.23;102654.88;4963800;28;20496;-94
2020/12/04 10:17:18;;;;;;;25.20;11.77;;;;;;;2.13;45.79;102666.69;4960264;28;20031;-91
2020/12/04 10:19:44;;;;;;;20.08;10.77;;;;;;;1.79;45.78;102588.78;4957015;28;20038;-94
2020/12/04 10:22:11;;;;;;;24.33;12.13;;;;;;;2.16;45.72;102669.09;4962824;28;20026;-91
2020/12/04 10:24:38;;;;;;;18.08;12.05;;;;;;;1.78;45.59;102596.13;4964094;28;20043;-91
2020/12/04 10:27:05;;;;;;;24.88;13.68;;;;;;;2.24;45.85;102661.03;4966124;28;20030;-93
2020/12/04 10:29:32;;;;;;;23.45;13.15;;;;;;;1.63;45.63;102545.69;4963022;28;20037;-89
2020/12/04 10:31:59;;;;;;;24.10;12.68;;;;;;;2.29;45.87;102653.25;4961306;28;20030;-89
2020/12/04 10:34:28;;;;;;;27.80;13.95;;;;;;;1.98;46.07;102615.22;4969819;28;20026;-91
2020/12/04 10:36:54;;;;;;;27.58;13.50;;;;;;;1.12;46.71;102483.09;4954843;28;20033;-92
2020/12/04 10:39:21;;;;;;;27.08;13.23;;;;;;;1.89;46.03;102599.69;4962612;28;21633;-90
2020/12/04 10:41:48;;;;;;;24.73;12.45;;;;;;;1.42;46.67;102538.53;4963830;28;20030;-89
2020/12/04 10:44:15;;;;;;;24.52;14.70;;;;;;;2.04;46.88;102633.72;4960075;28;20075;-92
2020/12/04 10:46:42;;;;;;;30.60;14.10;;;;;;;1.69;45.88;102555.16;4965634;28;20132;-91
2020/12/04 10:49:09;;;;;;;32.25;13.73;;;;;;;1.28;45.95;102470.72;4969083;28;20035;-92
2020/12/04 10:51:36;;;;;;;24.60;14.48;;;;;;;2.32;46.38;102666.63;4959358;28;20039;-91
2020/12/04 10:54:06;;;;;;;25.00;12.52;;;;;;;2.24;45.90;102655.56;4966609;28;20393;-91
2020/12/04 10:56:33;;;;;;;26.63;12.18;;;;;;;1.82;45.52;102643.13;4983752;28;20481;-89
2020/12/04 10:59:00;;;;;;;24.75;12.18;;;;;;;1.12;45.42;102520.44;4965329;28;20031;-90
2020/12/04 11:01:38;;;;;;;22.88;10.73;;;;;;;2.08;44.54;102672.56;4961405;28;20501;-84
2020/12/04 11:06:50;;;;;;;17.38;12.00;;;;;;;0.20;43.85;102379.75;4977226;28;20215;-93
2020/12/04 11:09:16;;;;;;;18.60;11.00;;;;;;;1.94;44.08;102676.59;4958759;28;20501;-93
2020/12/04 11:11:43;;;;;;;24.75;12.68;;;;;;;1.74;44.38;102626.59;4964765;28;20493;-95
2020/12/04 11:14:11;;;;;;;20.92;11.40;;;;;;;1.83;45.17;102650.31;4958939;28;20051;-84
2020/12/04 11:16:42;;;;;;;18.38;11.52;;;;;;;0.94;44.26;102513.84;4958102;28;20030;-92
2020/12/04 11:19:10;;;;;;;18.20;10.93;;;;;;;2.01;43.32;102672.28;4962774;28;20471;-92
2020/12/04 11:21:37;;;;;;;19.85;11.63;;;;;;;0.39;44.11;102422.53;4956491;28;20038;-92
2020/12/04 11:24:04;;;;;;;18.90;11.27;;;;;;;1.71;43.89;102641.41;4954664;28;20022;-88
2020/12/04 11:26:31;;;;;;;23.63;12.38;;;;;;;1.56;44.44;102612.81;4955488;28;20041;-89
2020/12/04 11:28:58;;;;;;;21.95;11.88;;;;;;;1.34;44.04;102580.19;4944041;28;20063;-84
2020/12/04 11:31:27;;;;;;;20.30;11.40;;;;;;;1.34;45.06;102587.50;4966880;28;20058;-83
2020/12/04 11:33:54;;;;;;;22.20;12.10;;;;;;;1.18;44.42;102538.97;4968603;28;20286;-85
2020/12/04 11:36:21;;;;;;;26.52;13.00;;;;;;;1.83;44.37;102652.19;4970148;28;20030;-82
2020/12/04 11:38:48;;;;;;;21.98;11.95;;;;;;;1.52;44.58;102586.78;4954459;28;20489;-84
2020/12/04 11:41:15;;;;;;;24.50;12.43;;;;;;;1.48;44.22;102599.84;4955131;28;20038;-86